sensor_id;sensor_type;location;lat;lon;timestamp;pressure;altitude;pressure_sealevel;temperature;humidity
20622;BME280;10470;42.670;23.354;2023-07-28T00:02:08;94940.66;;;16.68;100.00
20622;BME280;10470;42.670;23.354;2023-07-28T00:04:35;94941.72;;;16.50;100.00
20622;BME280;10470;42.670;23.354;2023-07-28T00:07:01;94941.59;;;16.65;100.00
20622;BME280;10470;42.670;23.354;2023-07-28T00:09:27;94937.72;;;16.51;100.00
20622;BME280;10470;42.670;23.354;2023-07-28T00:11:53;94940.16;;;16.70;100.00
20622;BME280;10470;42.670;23.354;2023-07-28T00:14:19;94942.50;;;16.77;100.00
20622;BME280;10470;42.670;23.354;2023-07-28T00:16:45;94942.53;;;16.36;100.00
20622;BME280;10470;42.670;23.354;2023-07-28T00:19:11;94939.78;;;16.56;100.00
20622;BME280;10470;42.670;23.354;2023-07-28T00:21:37;94938.06;;;16.38;100.00
20622;BME280;10470;42.670;23.354;2023-07-28T00:24:03;94944.19;;;16.28;100.00
20622;BME280;10470;42.670;23.354;2023-07-28T00:26:29;94935.06;;;16.63;100.00
20622;BME280;10470;42.670;23.354;2023-07-28T00:28:55;94936.66;;;16.69;100.00
20622;BME280;10470;42.670;23.354;2023-07-28T00:31:21;94930.94;;;16.73;100.00
20622;BME280;10470;42.670;23.354;2023-07-28T00:33:46;94921.31;;;16.63;100.00
20622;BME280;10470;42.670;23.354;2023-07-28T00:36:12;94929.03;;;16.58;100.00
20622;BME280;10470;42.670;23.354;2023-07-28T00:38:38;94927.56;;;16.37;100.00
20622;BME280;10470;42.670;23.354;2023-07-28T00:41:04;94931.19;;;16.49;100.00
20622;BME280;10470;42.670;23.354;2023-07-28T00:43:30;94935.00;;;16.57;100.00
20622;BME280;10470;42.670;23.354;2023-07-28T00:45:56;94936.22;;;16.50;100.00
20622;BME280;10470;42.670;23.354;2023-07-28T00:48:22;94936.16;;;16.24;100.00
20622;BME280;10470;42.670;23.354;2023-07-28T00:50:49;94936.19;;;16.09;100.00
20622;BME280;10470;42.670;23.354;2023-07-28T00:53:15;94940.28;;;16.34;100.00
20622;BME280;10470;42.670;23.354;2023-07-28T00:55:41;94927.63;;;16.43;100.00
20622;BME280;10470;42.670;23.354;2023-07-28T00:58:08;94930.06;;;16.61;100.00
20622;BME280;10470;42.670;23.354;2023-07-28T01:00:34;94941.06;;;16.61;100.00
20622;BME280;10470;42.670;23.354;2023-07-28T01:03:00;94939.22;;;16.99;100.00
20622;BME280;10470;42.670;23.354;2023-07-28T01:05:33;94938.72;;;16.95;100.00
20622;BME280;10470;42.670;23.354;2023-07-28T01:08:06;94934.56;;;16.38;100.00
20622;BME280;10470;42.670;23.354;2023-07-28T01:10:38;94938.81;;;16.39;100.00
20622;BME280;10470;42.670;23.354;2023-07-28T01:13:04;94940.44;;;16.92;100.00
20622;BME280;10470;42.670;23.354;2023-07-28T01:15:30;94946.47;;;16.96;100.00
20622;BME280;10470;42.670;23.354;2023-07-28T01:17:55;94939.09;;;17.08;100.00
20622;BME280;10470;42.670;23.354;2023-07-28T01:20:24;94943.28;;;16.77;100.00
20622;BME280;10470;42.670;23.354;2023-07-28T01:23:56;94939.53;;;16.60;100.00
20622;BME280;10470;42.670;23.354;2023-07-28T01:26:11;94945.56;;;17.05;100.00
20622;BME280;10470;42.670;23.354;2023-07-28T01:28:39;94946.09;;;16.83;100.00
20622;BME280;10470;42.670;23.354;2023-07-28T01:31:07;94936.94;;;16.71;100.00
20622;BME280;10470;42.670;23.354;2023-07-28T01:33:33;94941.66;;;16.91;100.00
20622;BME280;10470;42.670;23.354;2023-07-28T01:35:59;94940.00;;;16.99;100.00
20622;BME280;10470;42.670;23.354;2023-07-28T01:38:28;94941.34;;;16.84;100.00
20622;BME280;10470;42.670;23.354;2023-07-28T01:40:54;94936.75;;;16.34;100.00
20622;BME280;10470;42.670;23.354;2023-07-28T01:43:20;94931.94;;;16.49;100.00
20622;BME280;10470;42.670;23.354;2023-07-28T01:45:46;94932.22;;;16.51;100.00
20622;BME280;10470;42.670;23.354;2023-07-28T01:48:12;94936.28;;;16.35;100.00
20622;BME280;10470;42.670;23.354;2023-07-28T01:50:38;94939.22;;;16.52;100.00
20622;BME280;10470;42.670;23.354;2023-07-28T01:53:05;94937.09;;;16.42;100.00
20622;BME280;10470;42.670;23.354;2023-07-28T01:55:31;94939.44;;;16.49;100.00
20622;BME280;10470;42.670;23.354;2023-07-28T01:57:59;94935.44;;;16.50;100.00
20622;BME280;10470;42.670;23.354;2023-07-28T02:00:25;94943.91;;;16.46;100.00
20622;BME280;10470;42.670;23.354;2023-07-28T02:02:52;94943.78;;;16.55;100.00
20622;BME280;10470;42.670;23.354;2023-07-28T02:05:18;94938.06;;;16.18;100.00
20622;BME280;10470;42.670;23.354;2023-07-28T02:07:45;94940.53;;;16.16;100.00
20622;BME280;10470;42.670;23.354;2023-07-28T02:10:11;94942.06;;;16.17;100.00
20622;BME280;10470;42.670;23.354;2023-07-28T02:12:38;94941.78;;;16.35;100.00
20622;BME280;10470;42.670;23.354;2023-07-28T02:15:05;94927.19;;;15.88;100.00
20622;BME280;10470;42.670;23.354;2023-07-28T02:17:32;94928.16;;;15.56;100.00
20622;BME280;10470;42.670;23.354;2023-07-28T02:19:58;94913.00;;;15.60;100.00
20622;BME280;10470;42.670;23.354;2023-07-28T02:22:24;94935.22;;;16.12;100.00
20622;BME280;10470;42.670;23.354;2023-07-28T02:24:50;94940.03;;;15.97;100.00
20622;BME280;10470;42.670;23.354;2023-07-28T02:27:16;94940.41;;;15.69;100.00
20622;BME280;10470;42.670;23.354;2023-07-28T02:29:42;94936.69;;;15.58;100.00
20622;BME280;10470;42.670;23.354;2023-07-28T02:32:08;94943.41;;;15.71;100.00
20622;BME280;10470;42.670;23.354;2023-07-28T02:34:33;94942.41;;;15.54;100.00
20622;BME280;10470;42.670;23.354;2023-07-28T02:36:59;94936.59;;;15.67;100.00
20622;BME280;10470;42.670;23.354;2023-07-28T02:39:25;94935.75;;;15.76;100.00
20622;BME280;10470;42.670;23.354;2023-07-28T02:41:51;94942.94;;;15.43;100.00
20622;BME280;10470;42.670;23.354;2023-07-28T02:44:17;94932.44;;;15.57;100.00
20622;BME280;10470;42.670;23.354;2023-07-28T02:46:43;94944.66;;;15.56;100.00
20622;BME280;10470;42.670;23.354;2023-07-28T02:49:09;94926.31;;;15.47;100.00
20622;BME280;10470;42.670;23.354;2023-07-28T02:51:35;94939.09;;;15.35;100.00
20622;BME280;10470;42.670;23.354;2023-07-28T02:54:01;94938.34;;;15.35;100.00
20622;BME280;10470;42.670;23.354;2023-07-28T02:56:27;94939.28;;;15.46;100.00
20622;BME280;10470;42.670;23.354;2023-07-28T02:58:53;94941.56;;;15.33;100.00
20622;BME280;10470;42.670;23.354;2023-07-28T03:01:18;94947.00;;;15.78;100.00
20622;BME280;10470;42.670;23.354;2023-07-28T03:03:44;94938.03;;;15.47;100.00
20622;BME280;10470;42.670;23.354;2023-07-28T03:06:10;94940.13;;;15.38;100.00
20622;BME280;10470;42.670;23.354;2023-07-28T03:08:36;94940.69;;;15.12;100.00
20622;BME280;10470;42.670;23.354;2023-07-28T03:11:02;94936.38;;;15.20;100.00
20622;BME280;10470;42.670;23.354;2023-07-28T03:13:28;94939.38;;;15.37;100.00
20622;BME280;10470;42.670;23.354;2023-07-28T03:15:55;94939.94;;;15.41;100.00
20622;BME280;10470;42.670;23.354;2023-07-28T03:18:20;94946.00;;;15.45;100.00
20622;BME280;10470;42.670;23.354;2023-07-28T03:20:47;94950.47;;;15.28;100.00
20622;BME280;10470;42.670;23.354;2023-07-28T03:23:13;94947.81;;;15.34;100.00
20622;BME280;10470;42.670;23.354;2023-07-28T03:25:39;94950.94;;;15.26;100.00
20622;BME280;10470;42.670;23.354;2023-07-28T03:28:04;94951.59;;;15.36;100.00
20622;BME280;10470;42.670;23.354;2023-07-28T03:30:30;94948.19;;;15.41;100.00
20622;BME280;10470;42.670;23.354;2023-07-28T03:32:56;94950.72;;;15.30;100.00
20622;BME280;10470;42.670;23.354;2023-07-28T03:35:22;94954.16;;;15.10;100.00
20622;BME280;10470;42.670;23.354;2023-07-28T03:37:48;94957.84;;;15.37;100.00
20622;BME280;10470;42.670;23.354;2023-07-28T03:40:14;94959.63;;;15.55;100.00
20622;BME280;10470;42.670;23.354;2023-07-28T03:42:40;94956.56;;;15.67;100.00
20622;BME280;10470;42.670;23.354;2023-07-28T03:45:06;94963.91;;;16.26;100.00
20622;BME280;10470;42.670;23.354;2023-07-28T03:47:32;94972.25;;;16.32;100.00
20622;BME280;10470;42.670;23.354;2023-07-28T03:49:58;94965.19;;;15.60;100.00
20622;BME280;10470;42.670;23.354;2023-07-28T03:52:24;94973.16;;;15.73;100.00
20622;BME280;10470;42.670;23.354;2023-07-28T03:54:50;94964.53;;;15.65;100.00
20622;BME280;10470;42.670;23.354;2023-07-28T03:57:16;94965.69;;;15.73;100.00
20622;BME280;10470;42.670;23.354;2023-07-28T03:59:42;94965.41;;;16.07;100.00
20622;BME280;10470;42.670;23.354;2023-07-28T04:02:08;94963.44;;;15.92;100.00
20622;BME280;10470;42.670;23.354;2023-07-28T04:04:35;94963.28;;;15.66;100.00
20622;BME280;10470;42.670;23.354;2023-07-28T04:07:01;94960.38;;;15.55;100.00
20622;BME280;10470;42.670;23.354;2023-07-28T04:09:27;94965.28;;;15.66;100.00
20622;BME280;10470;42.670;23.354;2023-07-28T04:11:53;94975.72;;;15.77;100.00
20622;BME280;10470;42.670;23.354;2023-07-28T04:14:19;94978.53;;;16.17;100.00
20622;BME280;10470;42.670;23.354;2023-07-28T04:16:45;94978.34;;;16.42;100.00
20622;BME280;10470;42.670;23.354;2023-07-28T04:19:11;94976.16;;;16.25;100.00
20622;BME280;10470;42.670;23.354;2023-07-28T04:21:37;94972.28;;;16.17;100.00
20622;BME280;10470;42.670;23.354;2023-07-28T04:24:06;94968.38;;;16.85;100.00
20622;BME280;10470;42.670;23.354;2023-07-28T04:26:32;94979.22;;;16.12;100.00
20622;BME280;10470;42.670;23.354;2023-07-28T04:28:58;94975.44;;;16.10;100.00
20622;BME280;10470;42.670;23.354;2023-07-28T04:31:24;94974.38;;;16.22;100.00
20622;BME280;10470;42.670;23.354;2023-07-28T04:33:50;94984.94;;;16.50;100.00
20622;BME280;10470;42.670;23.354;2023-07-28T04:36:16;94976.56;;;16.79;100.00
20622;BME280;10470;42.670;23.354;2023-07-28T04:38:41;94976.22;;;16.51;100.00
20622;BME280;10470;42.670;23.354;2023-07-28T04:41:07;94981.53;;;16.34;100.00
20622;BME280;10470;42.670;23.354;2023-07-28T04:43:33;94975.94;;;16.08;100.00
20622;BME280;10470;42.670;23.354;2023-07-28T04:45:59;94969.44;;;15.91;100.00
20622;BME280;10470;42.670;23.354;2023-07-28T04:48:26;94982.41;;;16.26;100.00
20622;BME280;10470;42.670;23.354;2023-07-28T04:50:52;94980.34;;;16.62;100.00
20622;BME280;10470;42.670;23.354;2023-07-28T04:53:19;94977.88;;;16.43;100.00
20622;BME280;10470;42.670;23.354;2023-07-28T04:55:45;94982.81;;;16.59;100.00
20622;BME280;10470;42.670;23.354;2023-07-28T04:58:11;94980.47;;;17.19;100.00
20622;BME280;10470;42.670;23.354;2023-07-28T05:00:37;94985.00;;;16.96;100.00
20622;BME280;10470;42.670;23.354;2023-07-28T05:03:03;94987.19;;;16.87;100.00
20622;BME280;10470;42.670;23.354;2023-07-28T05:05:29;94983.50;;;16.75;100.00
20622;BME280;10470;42.670;23.354;2023-07-28T05:07:55;94982.47;;;16.93;100.00
20622;BME280;10470;42.670;23.354;2023-07-28T05:10:21;94978.09;;;17.33;100.00
20622;BME280;10470;42.670;23.354;2023-07-28T05:12:47;94986.53;;;16.97;100.00
20622;BME280;10470;42.670;23.354;2023-07-28T05:15:15;94983.78;;;16.77;100.00
20622;BME280;10470;42.670;23.354;2023-07-28T05:17:41;94978.56;;;16.79;100.00
20622;BME280;10470;42.670;23.354;2023-07-28T05:20:07;94980.69;;;16.90;100.00
20622;BME280;10470;42.670;23.354;2023-07-28T05:22:33;94979.50;;;16.96;100.00
20622;BME280;10470;42.670;23.354;2023-07-28T05:24:59;94971.41;;;16.46;100.00
20622;BME280;10470;42.670;23.354;2023-07-28T05:27:25;94970.50;;;16.96;100.00
20622;BME280;10470;42.670;23.354;2023-07-28T05:29:51;94983.59;;;17.33;100.00
20622;BME280;10470;42.670;23.354;2023-07-28T05:32:17;94992.63;;;17.59;100.00
20622;BME280;10470;42.670;23.354;2023-07-28T05:34:43;94979.16;;;17.99;100.00
20622;BME280;10470;42.670;23.354;2023-07-28T05:37:09;94984.72;;;17.73;100.00
20622;BME280;10470;42.670;23.354;2023-07-28T05:39:36;94980.38;;;17.66;100.00
20622;BME280;10470;42.670;23.354;2023-07-28T05:42:02;94992.97;;;18.04;100.00
20622;BME280;10470;42.670;23.354;2023-07-28T05:44:28;94983.72;;;18.13;100.00
20622;BME280;10470;42.670;23.354;2023-07-28T05:46:54;94985.47;;;18.10;100.00
20622;BME280;10470;42.670;23.354;2023-07-28T05:49:20;94980.59;;;18.31;100.00
20622;BME280;10470;42.670;23.354;2023-07-28T05:51:46;94979.78;;;18.20;100.00
20622;BME280;10470;42.670;23.354;2023-07-28T05:54:12;94970.63;;;18.45;100.00
20622;BME280;10470;42.670;23.354;2023-07-28T05:56:41;94977.72;;;18.09;100.00
20622;BME280;10470;42.670;23.354;2023-07-28T05:59:07;94976.47;;;18.70;100.00
20622;BME280;10470;42.670;23.354;2023-07-28T06:01:32;94963.03;;;18.89;100.00
20622;BME280;10470;42.670;23.354;2023-07-28T06:03:59;94970.19;;;18.58;100.00
20622;BME280;10470;42.670;23.354;2023-07-28T06:06:25;94971.56;;;18.91;100.00
20622;BME280;10470;42.670;23.354;2023-07-28T06:08:52;94968.19;;;19.69;100.00
20622;BME280;10470;42.670;23.354;2023-07-28T06:11:18;94959.81;;;19.02;100.00
20622;BME280;10470;42.670;23.354;2023-07-28T06:13:44;94963.06;;;18.94;100.00
20622;BME280;10470;42.670;23.354;2023-07-28T06:16:12;94961.06;;;19.06;100.00
20622;BME280;10470;42.670;23.354;2023-07-28T06:18:38;94969.66;;;19.81;100.00
20622;BME280;10470;42.670;23.354;2023-07-28T06:21:04;94961.34;;;19.31;100.00
20622;BME280;10470;42.670;23.354;2023-07-28T06:23:30;94965.34;;;19.02;100.00
20622;BME280;10470;42.670;23.354;2023-07-28T06:25:56;94960.31;;;19.11;100.00
20622;BME280;10470;42.670;23.354;2023-07-28T06:28:23;94967.22;;;18.73;100.00
20622;BME280;10470;42.670;23.354;2023-07-28T06:30:56;94968.06;;;18.96;100.00
20622;BME280;10470;42.670;23.354;2023-07-28T06:33:22;94953.03;;;19.19;100.00
20622;BME280;10470;42.670;23.354;2023-07-28T06:35:48;94956.59;;;19.31;100.00
20622;BME280;10470;42.670;23.354;2023-07-28T06:38:14;94960.34;;;19.45;100.00
20622;BME280;10470;42.670;23.354;2023-07-28T06:40:40;94947.06;;;19.38;100.00
20622;BME280;10470;42.670;23.354;2023-07-28T06:43:06;94958.84;;;19.44;100.00
20622;BME280;10470;42.670;23.354;2023-07-28T06:45:33;94954.81;;;20.01;100.00
20622;BME280;10470;42.670;23.354;2023-07-28T06:47:59;94962.88;;;19.71;100.00
20622;BME280;10470;42.670;23.354;2023-07-28T06:50:25;94960.66;;;19.70;100.00
20622;BME280;10470;42.670;23.354;2023-07-28T06:52:51;94946.25;;;20.11;100.00
20622;BME280;10470;42.670;23.354;2023-07-28T06:55:17;94963.25;;;20.54;100.00
20622;BME280;10470;42.670;23.354;2023-07-28T06:57:44;94965.81;;;20.35;100.00
20622;BME280;10470;42.670;23.354;2023-07-28T07:00:10;94964.13;;;19.98;100.00
20622;BME280;10470;42.670;23.354;2023-07-28T07:02:37;94962.38;;;19.84;100.00
20622;BME280;10470;42.670;23.354;2023-07-28T07:05:03;94958.34;;;19.40;100.00
20622;BME280;10470;42.670;23.354;2023-07-28T07:07:29;94955.84;;;19.59;100.00
20622;BME280;10470;42.670;23.354;2023-07-28T07:09:55;94958.84;;;19.95;100.00
20622;BME280;10470;42.670;23.354;2023-07-28T07:12:21;94962.19;;;20.68;100.00
20622;BME280;10470;42.670;23.354;2023-07-28T07:14:47;94954.34;;;20.72;100.00
20622;BME280;10470;42.670;23.354;2023-07-28T07:17:13;94962.53;;;20.42;100.00
20622;BME280;10470;42.670;23.354;2023-07-28T07:19:39;94958.97;;;20.47;100.00
20622;BME280;10470;42.670;23.354;2023-07-28T07:22:05;94960.28;;;20.29;100.00
20622;BME280;10470;42.670;23.354;2023-07-28T07:24:32;94962.75;;;21.08;100.00
20622;BME280;10470;42.670;23.354;2023-07-28T07:26:58;94968.69;;;21.24;100.00
20622;BME280;10470;42.670;23.354;2023-07-28T07:29:24;94970.81;;;21.06;100.00
20622;BME280;10470;42.670;23.354;2023-07-28T07:31:50;94969.63;;;21.43;100.00
20622;BME280;10470;42.670;23.354;2023-07-28T07:34:20;94971.19;;;20.86;100.00
20622;BME280;10470;42.670;23.354;2023-07-28T07:36:47;94965.56;;;21.03;100.00
20622;BME280;10470;42.670;23.354;2023-07-28T07:39:13;94969.28;;;21.11;100.00
20622;BME280;10470;42.670;23.354;2023-07-28T07:41:39;94965.56;;;21.03;100.00
20622;BME280;10470;42.670;23.354;2023-07-28T07:44:05;94978.69;;;21.44;100.00
20622;BME280;10470;42.670;23.354;2023-07-28T07:46:31;94975.78;;;21.25;100.00
20622;BME280;10470;42.670;23.354;2023-07-28T07:48:57;94982.75;;;21.31;100.00
20622;BME280;10470;42.670;23.354;2023-07-28T07:51:23;94963.41;;;21.26;100.00
20622;BME280;10470;42.670;23.354;2023-07-28T07:53:49;94974.88;;;21.47;100.00
20622;BME280;10470;42.670;23.354;2023-07-28T07:56:15;94974.53;;;22.16;100.00
20622;BME280;10470;42.670;23.354;2023-07-28T07:58:41;94976.84;;;22.12;99.61
20622;BME280;10470;42.670;23.354;2023-07-28T08:01:07;94985.72;;;21.80;100.00
20622;BME280;10470;42.670;23.354;2023-07-28T08:03:34;94988.75;;;22.07;100.00
20622;BME280;10470;42.670;23.354;2023-07-28T08:06:02;94980.44;;;22.07;95.88
20622;BME280;10470;42.670;23.354;2023-07-28T08:08:28;94975.72;;;21.72;96.63
20622;BME280;10470;42.670;23.354;2023-07-28T08:10:54;94966.97;;;21.92;99.27
20622;BME280;10470;42.670;23.354;2023-07-28T08:13:20;94977.06;;;21.90;98.59
20622;BME280;10470;42.670;23.354;2023-07-28T08:15:47;94978.06;;;22.17;95.42
20622;BME280;10470;42.670;23.354;2023-07-28T08:18:13;94972.41;;;22.28;94.69
20622;BME280;10470;42.670;23.354;2023-07-28T08:20:40;94972.28;;;22.15;92.71
20622;BME280;10470;42.670;23.354;2023-07-28T08:23:06;94969.91;;;22.93;89.52
20622;BME280;10470;42.670;23.354;2023-07-28T08:25:33;94964.50;;;22.62;88.29
20622;BME280;10470;42.670;23.354;2023-07-28T08:28:00;94966.41;;;22.49;90.40
20622;BME280;10470;42.670;23.354;2023-07-28T08:30:26;94970.88;;;22.57;86.02
20622;BME280;10470;42.670;23.354;2023-07-28T08:32:52;94969.19;;;22.49;89.35
20622;BME280;10470;42.670;23.354;2023-07-28T08:35:18;94970.78;;;23.25;85.71
20622;BME280;10470;42.670;23.354;2023-07-28T08:37:44;94970.78;;;22.63;86.61
20622;BME280;10470;42.670;23.354;2023-07-28T08:40:10;94967.84;;;22.55;87.29
20622;BME280;10470;42.670;23.354;2023-07-28T08:42:38;94964.81;;;22.78;88.20
20622;BME280;10470;42.670;23.354;2023-07-28T08:45:05;94968.34;;;23.16;86.32
20622;BME280;10470;42.670;23.354;2023-07-28T08:47:32;94964.06;;;22.96;84.84
20622;BME280;10470;42.670;23.354;2023-07-28T08:49:58;94964.91;;;22.91;85.21
20622;BME280;10470;42.670;23.354;2023-07-28T08:52:24;94946.50;;;23.07;85.33
20622;BME280;10470;42.670;23.354;2023-07-28T08:54:50;94948.16;;;23.16;83.65
20622;BME280;10470;42.670;23.354;2023-07-28T08:57:16;94957.09;;;23.08;81.87
20622;BME280;10470;42.670;23.354;2023-07-28T08:59:42;94950.94;;;23.16;82.16
20622;BME280;10470;42.670;23.354;2023-07-28T09:02:17;94949.22;;;23.13;80.03
20622;BME280;10470;42.670;23.354;2023-07-28T09:04:44;94940.56;;;22.97;81.05
20622;BME280;10470;42.670;23.354;2023-07-28T09:07:10;94939.41;;;23.44;82.12
20622;BME280;10470;42.670;23.354;2023-07-28T09:09:37;94927.53;;;23.43;78.92
20622;BME280;10470;42.670;23.354;2023-07-28T09:12:03;94925.69;;;23.14;77.57
20622;BME280;10470;42.670;23.354;2023-07-28T09:14:35;94926.78;;;23.43;79.12
20622;BME280;10470;42.670;23.354;2023-07-28T09:17:09;94915.38;;;23.60;76.50
20622;BME280;10470;42.670;23.354;2023-07-28T09:19:57;94913.13;;;23.58;76.47
20622;BME280;10470;42.670;23.354;2023-07-28T09:22:23;94907.38;;;23.69;76.00
20622;BME280;10470;42.670;23.354;2023-07-28T09:24:50;94908.84;;;23.57;77.17
20622;BME280;10470;42.670;23.354;2023-07-28T09:27:22;94900.50;;;24.03;76.72
20622;BME280;10470;42.670;23.354;2023-07-28T09:29:49;94902.22;;;24.06;74.70
20622;BME280;10470;42.670;23.354;2023-07-28T09:32:16;94893.09;;;23.92;72.46
20622;BME280;10470;42.670;23.354;2023-07-28T09:34:42;94891.06;;;23.92;72.62
20622;BME280;10470;42.670;23.354;2023-07-28T09:37:09;94890.81;;;23.45;72.96
20622;BME280;10470;42.670;23.354;2023-07-28T09:39:36;94888.97;;;23.66;71.80
20622;BME280;10470;42.670;23.354;2023-07-28T09:42:02;94868.44;;;23.37;71.98
20622;BME280;10470;42.670;23.354;2023-07-28T09:44:29;94874.25;;;23.52;71.51
20622;BME280;10470;42.670;23.354;2023-07-28T09:46:57;94870.72;;;23.84;70.21
20622;BME280;10470;42.670;23.354;2023-07-28T09:49:32;94862.63;;;23.54;70.63
20622;BME280;10470;42.670;23.354;2023-07-28T09:52:04;94860.56;;;23.87;69.24
20622;BME280;10470;42.670;23.354;2023-07-28T09:54:30;94866.31;;;24.55;70.44
20622;BME280;10470;42.670;23.354;2023-07-28T09:56:59;94865.09;;;24.64;68.01
20622;BME280;10470;42.670;23.354;2023-07-28T09:59:29;94872.78;;;24.84;67.09
20622;BME280;10470;42.670;23.354;2023-07-28T10:01:58;94863.09;;;24.99;66.01
20622;BME280;10470;42.670;23.354;2023-07-28T10:04:24;94856.97;;;25.00;65.89
20622;BME280;10470;42.670;23.354;2023-07-28T10:06:52;94853.63;;;25.02;65.49
20622;BME280;10470;42.670;23.354;2023-07-28T10:09:26;94853.06;;;25.38;65.14
20622;BME280;10470;42.670;23.354;2023-07-28T10:11:53;94851.44;;;25.42;64.52
20622;BME280;10470;42.670;23.354;2023-07-28T10:16:51;94852.38;;;25.66;62.82
20622;BME280;10470;42.670;23.354;2023-07-28T10:19:20;94844.91;;;25.19;62.33
20622;BME280;10470;42.670;23.354;2023-07-28T10:21:46;94844.22;;;25.26;62.09
20622;BME280;10470;42.670;23.354;2023-07-28T10:24:12;94851.03;;;25.17;60.68
20622;BME280;10470;42.670;23.354;2023-07-28T10:26:40;94830.41;;;24.65;59.33
20622;BME280;10470;42.670;23.354;2023-07-28T10:29:13;94841.22;;;25.24;59.44
20622;BME280;10470;42.670;23.354;2023-07-28T10:31:58;94842.59;;;25.80;59.94
20622;BME280;10470;42.670;23.354;2023-07-28T10:34:24;94833.88;;;25.34;58.29
20622;BME280;10470;42.670;23.354;2023-07-28T10:37:00;94832.09;;;25.94;58.31
20622;BME280;10470;42.670;23.354;2023-07-28T10:39:26;94831.50;;;26.17;57.77
20622;BME280;10470;42.670;23.354;2023-07-28T10:42:07;94827.69;;;26.35;57.05
20622;BME280;10470;42.670;23.354;2023-07-28T10:44:34;94838.53;;;26.46;56.40
20622;BME280;10470;42.670;23.354;2023-07-28T10:47:00;94824.72;;;26.41;55.19
20622;BME280;10470;42.670;23.354;2023-07-28T10:49:27;94835.25;;;26.19;55.15
20622;BME280;10470;42.670;23.354;2023-07-28T10:51:53;94833.13;;;25.83;55.57
20622;BME280;10470;42.670;23.354;2023-07-28T10:54:19;94827.13;;;26.00;54.93
20622;BME280;10470;42.670;23.354;2023-07-28T10:56:47;94818.16;;;26.30;54.65
20622;BME280;10470;42.670;23.354;2023-07-28T10:59:14;94827.31;;;26.75;53.55
20622;BME280;10470;42.670;23.354;2023-07-28T11:01:41;94817.28;;;27.10;53.28
20622;BME280;10470;42.670;23.354;2023-07-28T11:04:20;94806.53;;;27.37;53.05
20622;BME280;10470;42.670;23.354;2023-07-28T11:06:48;94806.16;;;27.64;52.14
20622;BME280;10470;42.670;23.354;2023-07-28T11:09:17;94806.88;;;27.80;52.68
20622;BME280;10470;42.670;23.354;2023-07-28T11:11:44;94802.44;;;28.48;51.91
20622;BME280;10470;42.670;23.354;2023-07-28T11:14:11;94802.56;;;28.65;50.73
20622;BME280;10470;42.670;23.354;2023-07-28T11:16:39;94801.50;;;28.45;50.06
20622;BME280;10470;42.670;23.354;2023-07-28T11:19:13;94786.50;;;28.10;50.90
20622;BME280;10470;42.670;23.354;2023-07-28T11:21:40;94793.31;;;28.80;50.81
20622;BME280;10470;42.670;23.354;2023-07-28T11:24:07;94784.88;;;28.40;49.05
20622;BME280;10470;42.670;23.354;2023-07-28T11:26:37;94784.50;;;29.16;48.31
20622;BME280;10470;42.670;23.354;2023-07-28T11:29:04;94790.91;;;29.34;48.18
20622;BME280;10470;42.670;23.354;2023-07-28T11:31:30;94785.31;;;29.52;48.30
20622;BME280;10470;42.670;23.354;2023-07-28T11:33:57;94787.69;;;29.13;48.77
20622;BME280;10470;42.670;23.354;2023-07-28T11:36:24;94772.38;;;29.56;48.04
20622;BME280;10470;42.670;23.354;2023-07-28T11:38:51;94773.13;;;29.99;46.92
20622;BME280;10470;42.670;23.354;2023-07-28T11:41:19;94780.22;;;30.18;46.53
20622;BME280;10470;42.670;23.354;2023-07-28T11:43:47;94779.72;;;30.46;46.25
20622;BME280;10470;42.670;23.354;2023-07-28T11:46:43;94774.94;;;31.21;44.06
20622;BME280;10470;42.670;23.354;2023-07-28T11:49:10;94770.47;;;32.30;42.16
20622;BME280;10470;42.670;23.354;2023-07-28T11:51:41;94767.19;;;32.24;41.95
20622;BME280;10470;42.670;23.354;2023-07-28T11:54:13;94769.28;;;32.33;41.75
20622;BME280;10470;42.670;23.354;2023-07-28T11:56:44;94762.78;;;32.91;40.60
20622;BME280;10470;42.670;23.354;2023-07-28T11:59:11;94770.22;;;31.60;40.45
20622;BME280;10470;42.670;23.354;2023-07-28T12:01:54;94768.38;;;32.11;39.84
20622;BME280;10470;42.670;23.354;2023-07-28T12:04:27;94769.78;;;33.93;38.48
20622;BME280;10470;42.670;23.354;2023-07-28T12:07:11;94762.31;;;32.95;39.06
20622;BME280;10470;42.670;23.354;2023-07-28T12:12:20;94764.06;;;32.01;39.94
20622;BME280;10470;42.670;23.354;2023-07-28T12:14:47;94763.03;;;33.56;37.90
20622;BME280;10470;42.670;23.354;2023-07-28T12:17:14;94749.38;;;32.31;38.89
20622;BME280;10470;42.670;23.354;2023-07-28T12:20:05;94752.47;;;33.56;38.50
20622;BME280;10470;42.670;23.354;2023-07-28T12:22:43;94751.03;;;33.04;38.74
20622;BME280;10470;42.670;23.354;2023-07-28T12:25:10;94748.03;;;32.61;38.73
20622;BME280;10470;42.670;23.354;2023-07-28T12:27:37;94739.56;;;32.32;38.62
20622;BME280;10470;42.670;23.354;2023-07-28T12:30:04;94749.72;;;33.05;37.84
20622;BME280;10470;42.670;23.354;2023-07-28T12:32:30;94736.22;;;33.57;37.16
20622;BME280;10470;42.670;23.354;2023-07-28T12:34:56;94732.28;;;31.90;39.53
20622;BME280;10470;42.670;23.354;2023-07-28T12:37:22;94736.56;;;33.20;38.77
20622;BME280;10470;42.670;23.354;2023-07-28T12:39:48;94723.19;;;32.79;38.79
20622;BME280;10470;42.670;23.354;2023-07-28T12:42:14;94726.13;;;32.81;38.58
20622;BME280;10470;42.670;23.354;2023-07-28T12:44:41;94719.13;;;32.92;38.53
20622;BME280;10470;42.670;23.354;2023-07-28T12:47:07;94724.09;;;32.62;39.56
20622;BME280;10470;42.670;23.354;2023-07-28T12:49:33;94724.75;;;32.12;39.65